Kundian Weather



Kundian's Current Weather

Temprature 25.562o light rain

light rain

Rain: 12 %

Min Temprature25.562o
Max Temprature25.562o
Humidity50
Wind Speed3.19 m/h
Sun Rise05:11:04
Sun Set19:10:53
Current Time: 24-May-2019 04:09:02
Lat/Lon: 32.46, 71.49




Kundian's Geo Location



Kundian's Weather Forecast

Time Overall Temp Min Temp Max Temp Humidity Wind Speed Rain
24-May-2019 (Fri)
05:00:00 light rain 24.750 24.750 25.562 50 3.19 m/h 12 %
08:00:00 clear sky 26.740 26.740 27.350 41 3.3 m/h 0 %
11:00:00 clear sky 30.040 30.040 30.450 31 2.56 m/h 0 %
14:00:00 clear sky 32.750 32.750 32.950 24 0.83 m/h 0 %
17:00:00 scattered clouds 31.550 31.550 31.550 30 8.18 m/h 0 %
20:00:00 moderate rain 29.789 29.789 29.789 35 2.35 m/h 356 %
23:00:00 few clouds 29.289 29.289 29.289 38 2.39 m/h 0 %
25-May-2019 (Sat)
02:00:00 clear sky 28.089 28.089 28.089 42 2.22 m/h 0 %
05:00:00 clear sky 27.020 27.020 27.020 44 2.25 m/h 0 %
08:00:00 clear sky 29.338 29.338 29.338 34 2.45 m/h 0 %
11:00:00 clear sky 32.282 32.282 32.282 24 2.11 m/h 0 %
14:00:00 clear sky 34.780 34.780 34.780 18 0.87 m/h 0 %
17:00:00 clear sky 35.835 35.835 35.835 16 2.1 m/h 0 %
20:00:00 clear sky 34.187 34.187 34.187 19 3.1 m/h 0 %
23:00:00 clear sky 32.218 32.218 32.218 25 1.34 m/h 0 %
26-May-2019 (Sun)
02:00:00 clear sky 30.899 30.899 30.899 21 2.97 m/h 0 %
05:00:00 clear sky 29.150 29.150 29.150 26 1.92 m/h 0 %
08:00:00 clear sky 32.050 32.050 32.050 18 5.17 m/h 0 %
11:00:00 light rain 34.679 34.679 34.679 13 4.68 m/h 6 %
14:00:00 clear sky 36.406 36.406 36.406 13 1.55 m/h 0 %
17:00:00 clear sky 37.350 37.350 37.350 11 1.33 m/h 0 %
20:00:00 clear sky 35.450 35.450 35.450 14 3.93 m/h 0 %
23:00:00 clear sky 32.950 32.950 32.950 15 2.79 m/h 0 %
27-May-2019 (Mon)
02:00:00 clear sky 31.050 31.050 31.050 16 2.39 m/h 0 %
05:00:00 clear sky 29.150 29.150 29.150 16 4.77 m/h 0 %
08:00:00 clear sky 31.850 31.850 31.850 10 4.21 m/h 0 %
11:00:00 clear sky 35.560 35.560 35.560 8 4.03 m/h 0 %
14:00:00 clear sky 37.640 37.640 37.640 7 2.47 m/h 0 %
17:00:00 clear sky 38.650 38.650 38.650 7 3.73 m/h 0 %
20:00:00 clear sky 35.714 35.714 35.714 11 3.95 m/h 0 %
23:00:00 clear sky 33.187 33.187 33.187 12 3.47 m/h 0 %
28-May-2019 (Tue)
02:00:00 clear sky 31.491 31.491 31.491 13 3.31 m/h 0 %
05:00:00 clear sky 29.284 29.284 29.284 18 1.63 m/h 0 %
08:00:00 clear sky 33.083 33.083 33.083 11 3.45 m/h 0 %
11:00:00 clear sky 36.622 36.622 36.622 7 4.95 m/h 0 %
14:00:00 clear sky 38.494 38.494 38.494 7 2.55 m/h 0 %
17:00:00 clear sky 39.524 39.524 39.524 7 3.67 m/h 0 %
20:00:00 clear sky 36.587 36.587 36.587 10 3.75 m/h 0 %
23:00:00 clear sky 34.038 34.038 34.038 11 3.33 m/h 0 %
29-May-2019 (Wed)
02:00:00 clear sky 32.129 32.129 32.129 12 2.85 m/h 0 %

Famous Cities (60)